LVNO2: Poteau River At Loving, OK
Data processed at Fri 10Mar2023 05:02 GMT
All information presented herein is the property of the government of the United States of America and may be revised or deleted at any time without prior notice.
Dissemination of this information without the expressed written consent of the Public Affairs Office, Tulsa District U.S. Army Corps of Engineers is strictly prohibited.
These data are gathered electronically and, as presented, have not undergone any form of quality control. These data are not guaranteed to be valid or correct.
Go to home page.
Go to station list.
Upstream stations:
Downstream station:Previous Day
Next Day
Current Day
SHEF ID: LVNO2 Poteau River at Loving, OK
STATION TYPE:
Regulating: Stage = 20.00, Flow = 4523
STAGE RIV-FLOW
ft cfs
Ccp-Rev Ccp-Rev
(US/Central)
03/09 00:00 12.59 938
03/09 01:00 12.57 930
03/09 02:00 12.55 923
03/09 03:00 12.53 915
03/09 04:00 12.52 911
03/09 05:00 12.49 900
03/09 06:00 12.46 889
03/09 07:00 12.46 889
03/09 08:00 12.45 885
03/09 09:00 12.46 889
03/09 10:00 12.49 900
03/09 11:00 12.52 911
03/09 12:00 12.55 923
03/09 13:00 12.58 934
03/09 14:00 12.65 961
03/09 15:00 12.69 977
03/09 16:00 12.73 993
03/09 17:00 12.83 1031
03/09 18:00 12.95 1078
03/09 19:00 13.11 1141
03/09 20:00 13.32 1227
03/09 21:00 13.56 1325
03/09 22:00 13.80 1426
03/09 23:00 ---- ----